Time;durP1;ratioP1;P1;durP2;ratioP2;P2;SDS_P1;SDS_P2;PMS_P1;PMS_P2;Temp;Humidity;BMP_temperature;BMP_pressure;BME280_temperature;BME280_humidity;BME280_pressure;Samples;Min_cycle;Max_cycle;Signal;HPM_P1;HPM_P2
2022/08/29 00:00:17;;;;;;;19.67;18.10;;;14.80;1.00;;;;;;5053447;28;20203;-83
2022/08/29 00:02:48;;;;;;;21.80;19.97;;;14.80;99.90;;;;;;5053712;28;20301;-86
2022/08/29 00:05:15;;;;;;;35.00;32.73;;;14.70;99.90;;;;;;5053897;28;20253;-84
2022/08/29 00:07:42;;;;;;;52.57;49.47;;;14.70;99.90;;;;;;5053022;28;20197;-86
2022/08/29 00:10:09;;;;;;;46.50;43.70;;;14.70;22.60;;;;;;5053079;28;20210;-85
2022/08/29 00:12:37;;;;;;;50.33;47.40;;;14.70;99.90;;;;;;5053286;28;20211;-86
2022/08/29 00:15:05;;;;;;;49.03;46.13;;;14.60;99.90;;;;;;5053538;28;20282;-86
2022/08/29 00:17:33;;;;;;;59.37;55.67;;;14.60;99.90;;;;;;5065328;28;20199;-86
2022/08/29 00:20:01;;;;;;;50.13;46.93;;;14.60;99.90;;;;;;5052806;28;20191;-85
2022/08/29 00:22:28;;;;;;;43.50;40.60;;;14.60;21.30;;;;;;5053158;28;20210;-86
2022/08/29 00:24:55;;;;;;;54.07;50.57;;;14.50;1.00;;;;;;5052982;28;20194;-86
2022/08/29 00:27:23;;;;;;;56.77;53.17;;;14.50;99.90;;;;;;5052999;28;20224;-86
2022/08/29 00:29:50;;;;;;;50.87;47.63;;;14.40;44.20;;;;;;5051811;28;20342;-85
2022/08/29 00:32:17;;;;;;;41.77;39.07;;;14.40;99.90;;;;;;5052934;28;20195;-85
2022/08/29 00:34:44;;;;;;;49.03;44.73;;;14.40;99.90;;;;;;5052852;28;20200;-86
2022/08/29 00:37:12;;;;;;;43.40;40.70;;;14.40;99.90;;;;;;5052972;28;20222;-86
2022/08/29 00:39:39;;;;;;;46.43;43.33;;;14.40;1.00;;;;;;5052622;28;20191;-86
2022/08/29 00:42:07;;;;;;;49.33;46.17;;;14.40;99.90;;;;;;5058350;28;20222;-86
2022/08/29 00:44:34;;;;;;;57.73;53.07;;;14.30;99.90;;;;;;5060851;28;20249;-86
2022/08/29 00:47:06;;;;;;;70.60;66.23;;;14.30;1.00;;;;;;5052048;28;20644;-85
2022/08/29 00:49:38;;;;;;;51.50;48.47;;;14.20;99.90;;;;;;5037082;28;20670;-86
2022/08/29 00:52:08;;;;;;;63.57;59.87;;;14.20;99.90;;;;;;5046841;28;20202;-86
2022/08/29 00:54:38;;;;;;;59.47;56.03;;;14.20;99.90;;;;;;5052759;28;20187;-86
2022/08/29 00:57:06;;;;;;;61.87;58.33;;;14.10;99.90;;;;;;5052102;28;20696;-86
2022/08/29 00:59:36;;;;;;;65.03;61.37;;;14.10;99.90;;;;;;5051750;28;20717;-86
2022/08/29 01:02:04;;;;;;;52.80;49.70;;;14.10;99.90;;;;;;5051955;28;20317;-86
2022/08/29 01:04:31;;;;;;;45.50;42.87;;;14.00;99.90;;;;;;5052342;28;20206;-87
2022/08/29 01:06:59;;;;;;;40.30;37.90;;;14.00;99.90;;;;;;5052446;28;20197;-87
2022/08/29 01:09:26;;;;;;;41.83;39.40;;;14.00;99.90;;;;;;5052112;28;20196;-87
2022/08/29 01:14:41;;;;;;;43.47;40.87;;;13.90;99.90;;;;;;5038496;28;20200;-87
2022/08/29 01:17:10;;;;;;;39.43;37.13;;;13.90;1.00;;;;;;5045311;28;20192;-86
2022/08/29 01:19:44;;;;;;;34.37;32.37;;;13.80;1.00;;;;;;5037168;28;20200;-87
2022/08/29 01:22:33;;;;;;;38.90;35.23;;;13.80;1.00;;;;;;5051768;28;20252;-86
2022/08/29 01:25:04;;;;;;;47.50;44.80;;;13.80;1.00;;;;;;5049510;28;20207;-87
2022/08/29 01:27:34;;;;;;;40.50;38.17;;;13.70;1.00;;;;;;5051628;28;20223;-86
2022/08/29 01:30:02;;;;;;;44.17;39.87;;;13.70;1.00;;;;;;5052297;28;20190;-86
2022/08/29 01:32:30;;;;;;;37.90;35.70;;;13.70;1.00;;;;;;5037558;28;20201;-86
2022/08/29 01:34:57;;;;;;;38.30;36.10;;;13.70;1.00;;;;;;5051765;28;20227;-86
2022/08/29 01:37:29;;;;;;;36.13;34.13;;;13.60;1.00;;;;;;5051916;28;20209;-86
2022/08/29 01:39:56;;;;;;;40.80;38.40;;;13.60;1.00;;;;;;5051887;28;20187;-87
2022/08/29 01:42:24;;;;;;;45.53;42.87;;;13.60;1.00;;;;;;5052208;28;20219;-86
2022/08/29 01:44:53;;;;;;;44.60;41.83;;;13.50;1.00;;;;;;5052181;28;20214;-86
2022/08/29 01:47:22;;;;;;;41.53;39.20;;;13.50;1.00;;;;;;5051824;28;20648;-87
2022/08/29 01:49:48;;;;;;;40.83;38.33;;;13.50;1.00;;;;;;5037623;28;20539;-87
2022/08/29 01:52:16;;;;;;;42.93;40.40;;;13.50;1.00;;;;;;5062704;28;20198;-87
2022/08/29 01:54:44;;;;;;;41.13;38.47;;;13.50;1.00;;;;;;5054491;28;20285;-87
2022/08/29 01:57:14;;;;;;;39.87;37.37;;;13.40;1.00;;;;;;5051507;28;20201;-86
2022/08/29 01:59:43;;;;;;;102.30;39.30;;;13.40;1.00;;;;;;5051424;28;20196;-86
2022/08/29 02:02:16;;;;;;;42.50;39.97;;;13.40;1.00;;;;;;5051459;28;20606;-86
2022/08/29 02:04:43;;;;;;;40.10;37.40;;;13.40;1.00;;;;;;5051838;28;20194;-86
2022/08/29 02:07:10;;;;;;;48.27;45.40;;;13.40;1.00;;;;;;5051775;28;20196;-86
2022/08/29 02:09:37;;;;;;;36.80;34.60;;;13.30;1.00;;;;;;5051515;28;20227;-86
2022/08/29 02:12:06;;;;;;;40.57;38.27;;;13.30;1.00;;;;;;5069568;28;20197;-86
2022/08/29 02:14:33;;;;;;;38.57;36.37;;;13.30;42.70;;;;;;5055625;28;20194;-86
2022/08/29 02:17:04;;;;;;;70.50;38.67;;;13.30;1.00;;;;;;5055206;28;20279;-86
2022/08/29 02:19:31;;;;;;;48.57;45.53;;;13.30;1.00;;;;;;5055529;28;20192;-86
2022/08/29 02:21:58;;;;;;;38.33;35.33;;;13.30;1.00;;;;;;5052761;28;20639;-87
2022/08/29 02:24:26;;;;;;;51.70;44.30;;;13.30;1.00;;;;;;5044074;28;20567;-86
2022/08/29 02:26:54;;;;;;;44.93;42.27;;;13.30;1.00;;;;;;5056707;28;20249;-86
2022/08/29 02:29:21;;;;;;;41.30;38.83;;;13.30;1.00;;;;;;5055292;28;20196;-86
2022/08/29 02:31:49;;;;;;;46.87;42.23;;;13.30;1.00;;;;;;5055017;28;20193;-87
2022/08/29 02:34:17;;;;;;;40.53;38.17;;;13.30;1.00;;;;;;5054959;28;20561;-87
2022/08/29 02:36:44;;;;;;;44.13;41.53;;;13.30;1.00;;;;;;5055267;28;20195;-87
2022/08/29 02:39:12;;;;;;;44.47;41.43;;;13.30;1.00;;;;;;5054761;28;20212;-87
2022/08/29 02:41:39;;;;;;;43.87;41.23;;;13.20;74.70;;;;;;5055207;28;20210;-87
2022/08/29 02:44:07;;;;;;;48.37;43.83;;;13.20;99.90;;;;;;5068604;28;20743;-86
2022/08/29 02:46:34;;;;;;;63.73;45.77;;;13.20;99.90;;;;;;5055033;28;20229;-86
2022/08/29 02:49:01;;;;;;;76.53;45.57;;;13.20;1.00;;;;;;5054976;28;20205;-86
2022/08/29 02:51:31;;;;;;;45.50;37.17;;;13.10;1.00;;;;;;5054904;28;20554;-86
2022/08/29 02:53:59;;;;;;;44.57;41.67;;;13.10;99.90;;;;;;5054844;28;20199;-87
2022/08/29 02:56:27;;;;;;;41.97;39.47;;;13.00;99.90;;;;;;5054862;28;20602;-86
2022/08/29 02:58:54;;;;;;;46.73;42.17;;;13.00;1.00;;;;;;5055011;28;20206;-87
2022/08/29 03:01:22;;;;;;;84.47;41.33;;;13.00;1.00;;;;;;5054590;28;20203;-86
2022/08/29 03:03:50;;;;;;;67.13;34.03;;;12.90;1.00;;;;;;5054122;28;20694;-86
2022/08/29 03:06:17;;;;;;;86.23;44.40;;;12.90;99.90;;;;;;5054354;28;20729;-86
2022/08/29 03:08:46;;;;;;;89.23;37.67;;;12.90;1.00;;;;;;5054317;28;20203;-86
2022/08/29 03:11:13;;;;;;;134.37;43.87;;;12.90;55.40;;;;;;5052952;28;20654;-86
2022/08/29 03:13:40;;;;;;;85.43;36.37;;;12.90;4.60;;;;;;5043830;28;20220;-86
2022/08/29 03:16:08;;;;;;;33.00;31.10;;;12.80;1.00;;;;;;5040917;28;20191;-85
2022/08/29 03:18:36;;;;;;;88.43;38.50;;;12.80;95.90;;;;;;5054521;28;20195;-86
2022/08/29 03:21:03;;;;;;;60.53;40.80;;;12.80;62.50;;;;;;5053685;28;20702;-87
2022/08/29 03:23:30;;;;;;;40.63;35.53;;;12.80;1.00;;;;;;5051325;28;20220;-86
2022/08/29 03:25:58;;;;;;;42.67;40.20;;;12.80;99.90;;;;;;5053904;28;20890;-86
2022/08/29 03:28:25;;;;;;;38.97;36.07;;;12.80;99.90;;;;;;5053878;28;20301;-86
2022/08/29 03:30:52;;;;;;;34.40;32.37;;;12.70;1.00;;;;;;5054024;28;20199;-86
2022/08/29 03:33:19;;;;;;;73.03;40.27;;;12.70;99.90;;;;;;5043815;28;20196;-86
2022/08/29 03:35:46;;;;;;;32.70;30.70;;;12.70;1.00;;;;;;5053582;28;20311;-86
2022/08/29 03:38:13;;;;;;;29.03;27.13;;;12.70;99.90;;;;;;5053783;28;20644;-86
2022/08/29 03:40:41;;;;;;;81.90;38.23;;;12.70;99.90;;;;;;5053831;28;20202;-86
2022/08/29 03:43:11;;;;;;;154.70;36.37;;;12.70;99.90;;;;;;5053693;28;20299;-87
2022/08/29 03:45:38;;;;;;;162.77;40.57;;;12.60;99.90;;;;;;5053433;28;20561;-86
2022/08/29 03:48:05;;;;;;;156.33;38.00;;;12.60;1.00;;;;;;5053423;28;20246;-87
2022/08/29 03:50:32;;;;;;;97.87;39.80;;;12.60;1.00;;;;;;5053888;28;20189;-87
2022/08/29 03:53:00;;;;;;;57.57;37.60;;;12.60;1.00;;;;;;5057925;28;20242;-86
2022/08/29 03:55:27;;;;;;;36.00;33.93;;;12.60;1.00;;;;;;5061731;28;20201;-86
2022/08/29 03:57:55;;;;;;;39.77;37.57;;;12.60;99.90;;;;;;5053157;28;20198;-85
2022/08/29 04:00:24;;;;;;;42.17;39.70;;;12.50;1.00;;;;;;5053640;28;20285;-86
2022/08/29 04:02:52;;;;;;;41.37;37.30;;;12.60;1.00;;;;;;5053285;28;20644;-85
2022/08/29 04:05:20;;;;;;;33.63;31.63;;;12.50;1.00;;;;;;5053117;28;20727;-85
2022/08/29 04:07:49;;;;;;;30.33;28.43;;;12.60;1.00;;;;;;5053411;28;20223;-86
2022/08/29 04:10:19;;;;;;;33.57;31.67;;;12.60;1.00;;;;;;5041363;28;20192;-86
2022/08/29 04:12:47;;;;;;;30.30;28.17;;;12.50;1.00;;;;;;5053367;28;20197;-87
2022/08/29 04:15:14;;;;;;;29.90;27.33;;;12.60;8.70;;;;;;5053183;28;20196;-87
2022/08/29 04:17:42;;;;;;;29.80;27.43;;;12.60;1.00;;;;;;5053002;28;20242;-87
2022/08/29 04:20:11;;;;;;;195.30;58.67;;;12.60;99.90;;;;;;5052967;28;20197;-87
2022/08/29 04:22:41;;;;;;;180.50;47.97;;;12.60;1.00;;;;;;5053103;28;20597;-87
2022/08/29 04:25:11;;;;;;;169.87;42.97;;;12.60;99.90;;;;;;5049134;28;20193;-86
2022/08/29 04:27:38;;;;;;;162.47;39.27;;;12.70;1.00;;;;;;5043144;28;20625;-86
2022/08/29 04:30:08;;;;;;;164.53;44.17;;;12.80;1.00;;;;;;5052720;28;20193;-87
2022/08/29 04:32:35;;;;;;;161.77;41.23;;;12.80;1.00;;;;;;5052096;28;20668;-87
2022/08/29 04:35:03;;;;;;;157.47;45.43;;;12.80;99.90;;;;;;5054257;28;20245;-87
2022/08/29 04:37:30;;;;;;;178.43;48.10;;;12.90;1.00;;;;;;5053319;28;20235;-87
2022/08/29 04:39:58;;;;;;;186.10;53.30;;;13.00;99.90;;;;;;5053046;28;20200;-86
2022/08/29 04:42:25;;;;;;;99.13;41.47;;;13.10;1.00;;;;;;5052630;28;20197;-87
2022/08/29 04:44:53;;;;;;;146.33;41.80;;;13.20;99.90;;;;;;5052894;28;20449;-88
2022/08/29 04:47:21;;;;;;;174.53;43.37;;;13.30;1.00;;;;;;5052006;28;20196;-87
2022/08/29 04:49:53;;;;;;;160.83;39.80;;;13.40;1.00;;;;;;5052714;28;20217;-87
2022/08/29 04:52:22;;;;;;;152.83;37.83;;;13.50;1.00;;;;;;5051897;28;20180;-86
2022/08/29 04:54:49;;;;;;;161.10;39.67;;;13.60;99.90;;;;;;5052510;28;20200;-87
2022/08/29 04:57:16;;;;;;;136.60;43.13;;;13.70;1.00;;;;;;5052011;28;20293;-86
2022/08/29 04:59:43;;;;;;;54.28;51.20;;;14.10;1.00;;;;;;5051036;28;20825;-85
2022/08/29 05:02:11;;;;;;;49.17;46.30;;;14.70;99.90;;;;;;5051958;28;20195;-84
2022/08/29 05:04:38;;;;;;;61.67;58.20;;;15.40;1.00;;;;;;5051853;28;20699;-84
2022/08/29 05:07:05;;;;;;;56.97;53.57;;;15.90;99.90;;;;;;5050502;28;20197;-86
2022/08/29 05:09:33;;;;;;;50.00;47.03;;;16.20;99.90;;;;;;5050879;28;20192;-85
2022/08/29 05:12:01;;;;;;;55.10;51.90;;;16.40;1.00;;;;;;5051767;28;20198;-86
2022/08/29 05:14:28;;;;;;;58.37;55.07;;;16.50;1.00;;;;;;5052381;28;20220;-86
2022/08/29 05:16:55;;;;;;;58.57;55.13;;;16.60;1.00;;;;;;5037518;28;20198;-87
2022/08/29 05:19:22;;;;;;;58.97;55.53;;;16.70;1.00;;;;;;5044917;28;20290;-88
2022/08/29 05:21:56;;;;;;;35.53;32.73;;;17.40;99.90;;;;;;5050390;28;20209;-87
2022/08/29 05:24:23;;;;;;;20.33;18.37;;;18.30;1.00;;;;;;5040272;28;20790;-87
2022/08/29 05:26:51;;;;;;;21.83;19.70;;;19.20;1.00;;;;;;5064688;28;20207;-88
2022/08/29 05:29:19;;;;;;;20.53;18.63;;;19.60;1.00;;;;;;5050879;28;20196;-88
2022/08/29 05:31:47;;;;;;;17.80;16.00;;;19.40;99.90;;;;;;5051108;28;20701;-88
2022/08/29 05:34:14;;;;;;;18.70;16.93;;;19.20;99.90;;;;;;5065932;28;20408;-88
2022/08/29 05:36:41;;;;;;;19.63;17.83;;;18.80;99.90;;;;;;5051765;28;20204;-87
2022/08/29 05:39:08;;;;;;;23.47;21.37;;;18.50;99.90;;;;;;5051373;28;20205;-87
2022/08/29 05:41:36;;;;;;;23.97;21.13;;;18.60;1.00;;;;;;5062332;28;20196;-89
2022/08/29 05:44:05;;;;;;;25.47;21.37;;;18.60;1.00;;;;;;5056712;28;20267;-87
2022/08/29 05:46:32;;;;;;;16.97;15.27;;;18.50;96.00;;;;;;5056749;28;20200;-88
2022/08/29 05:48:59;;;;;;;23.47;19.50;;;18.40;7.80;;;;;;5056755;28;20193;-87
2022/08/29 05:51:26;;;;;;;20.83;17.67;;;18.30;1.00;;;;;;5056577;28;20204;-87
2022/08/29 05:53:53;;;;;;;24.47;21.97;;;18.20;1.00;;;;;;5057842;28;20197;-88
2022/08/29 05:56:25;;;;;;;22.97;20.87;;;18.30;99.90;;;;;;5056257;28;20196;-89
2022/08/29 05:58:52;;;;;;;24.90;22.77;;;18.30;1.00;;;;;;5056464;28;20223;-87
2022/08/29 06:01:23;;;;;;;42.27;39.20;;;18.20;1.00;;;;;;5055926;28;20200;-87
2022/08/29 06:03:50;;;;;;;37.50;35.00;;;18.10;99.90;;;;;;5056229;28;20334;-87
2022/08/29 06:06:20;;;;;;;19.57;17.47;;;18.00;1.00;;;;;;5055865;28;20193;-88
2022/08/29 06:08:48;;;;;;;17.07;15.53;;;18.50;1.00;;;;;;5056211;28;20193;-87
2022/08/29 06:11:16;;;;;;;44.77;41.63;;;19.30;1.00;;;;;;5055792;28;20200;-86
2022/08/29 06:13:43;;;;;;;40.97;38.30;;;20.30;1.00;;;;;;5063870;28;20666;-88
2022/08/29 06:16:15;;;;;;;37.47;35.07;;;21.20;99.90;;;;;;5060833;28;20308;-87
2022/08/29 06:18:44;;;;;;;42.43;39.93;;;22.20;1.00;;;;;;5055756;28;20192;-87
2022/08/29 06:21:12;;;;;;;41.43;38.80;;;22.70;1.00;;;;;;5055356;28;20212;-88
2022/08/29 06:23:41;;;;;;;38.07;35.77;;;22.60;1.00;;;;;;5037324;28;20224;-87
2022/08/29 06:26:09;;;;;;;34.07;31.97;;;22.40;1.00;;;;;;5055764;28;20197;-86
2022/08/29 06:28:38;;;;;;;33.97;31.73;;;21.90;1.00;;;;;;5055533;28;20220;-87
2022/08/29 06:31:07;;;;;;;42.83;40.30;;;21.40;1.00;;;;;;5055189;28;20227;-88
2022/08/29 06:33:35;;;;;;;42.17;39.67;;;20.90;1.00;;;;;;5055785;28;20204;-88
2022/08/29 06:36:04;;;;;;;;;;;20.60;1.00;;;;;;5042166;28;20091;-86
2022/08/29 06:38:31;;;;;;;43.60;41.00;;;20.30;1.00;;;;;;5055226;28;20202;-88
2022/08/29 06:41:02;;;;;;;41.87;39.33;;;20.10;1.00;;;;;;5055092;28;20193;-87
2022/08/29 06:43:29;;;;;;;42.47;39.90;;;19.90;1.00;;;;;;5055266;28;20109;-86
2022/08/29 06:45:56;;;;;;;43.57;40.80;;;19.80;1.00;;;;;;5069010;28;20189;-87
2022/08/29 06:48:24;;;;;;;38.67;36.27;;;19.70;1.00;;;;;;5055321;28;20193;-87
2022/08/29 06:50:51;;;;;;;43.67;41.13;;;19.60;1.00;;;;;;5055112;28;20220;-87
2022/08/29 06:53:21;;;;;;;39.43;37.13;;;20.20;99.90;;;;;;5054740;28;20620;-87
2022/08/29 06:55:48;;;;;;;46.67;43.53;;;21.40;99.90;;;;;;5054066;28;20184;-86
2022/08/29 06:58:15;;;;;;;44.47;41.67;;;22.10;1.00;;;;;;5062056;28;20219;-88
2022/08/29 07:00:43;;;;;;;40.60;38.13;;;22.10;1.00;;;;;;5074913;28;20197;-87
2022/08/29 07:03:10;;;;;;;36.40;34.10;;;21.80;99.90;;;;;;5055302;28;20200;-87
2022/08/29 07:05:38;;;;;;;38.73;36.30;;;21.70;99.90;;;;;;5054839;28;20220;-86
2022/08/29 07:08:05;;;;;;;37.90;35.60;;;21.50;99.90;;;;;;5054757;28;20200;-87
2022/08/29 07:10:34;;;;;;;30.57;28.57;;;21.30;99.90;;;;;;5054649;28;20200;-87
2022/08/29 07:13:01;;;;;;;33.80;31.67;;;21.10;99.90;;;;;;5054907;28;20197;-89
2022/08/29 07:15:28;;;;;;;42.47;38.33;;;20.90;99.90;;;;;;5054491;28;20192;-86
2022/08/29 07:17:55;;;;;;;46.97;44.13;;;20.60;99.90;;;;;;5054277;28;20201;-88
2022/08/29 07:20:22;;;;;;;42.13;39.40;;;20.40;99.90;;;;;;5054584;28;20204;-88
2022/08/29 07:22:50;;;;;;;45.90;43.10;;;20.20;99.90;;;;;;5045549;28;20201;-86
2022/08/29 07:25:18;;;;;;;46.20;42.07;;;20.30;1.00;;;;;;5049550;28;20693;-87
2022/08/29 07:27:47;;;;;;;41.77;38.93;;;20.40;1.00;;;;;;5054571;28;20264;-87
2022/08/29 07:30:16;;;;;;;37.97;35.63;;;20.40;99.90;;;;;;5054090;28;20243;-86
2022/08/29 07:32:44;;;;;;;28.83;27.03;;;20.30;99.90;;;;;;5054108;28;20189;-87
2022/08/29 07:35:12;;;;;;;31.57;29.63;;;20.30;99.90;;;;;;5054071;28;20204;-86
2022/08/29 07:37:39;;;;;;;37.47;35.27;;;20.40;1.00;;;;;;5054070;28;20204;-86
2022/08/29 07:40:09;;;;;;;34.57;32.50;;;20.50;99.90;;;;;;5054455;28;20197;-86
2022/08/29 07:42:37;;;;;;;33.67;31.63;;;20.50;99.90;;;;;;5053960;28;20212;-87
2022/08/29 07:45:07;;;;;;;38.70;36.40;;;20.70;1.00;;;;;;5054451;28;20689;-87
2022/08/29 07:47:34;;;;;;;33.77;31.10;;;20.90;1.00;;;;;;5054212;28;20193;-89
2022/08/29 07:50:02;;;;;;;36.03;33.83;;;21.00;1.00;;;;;;5063554;28;20602;-87
2022/08/29 07:52:29;;;;;;;38.70;36.30;;;20.90;99.90;;;;;;5059755;28;20193;-88
2022/08/29 07:54:56;;;;;;;37.10;34.80;;;20.90;99.90;;;;;;5066526;28;20204;-87
2022/08/29 07:57:24;;;;;;;39.50;37.03;;;20.80;99.90;;;;;;5067506;28;20203;-89
2022/08/29 07:59:51;;;;;;;41.03;38.53;;;20.60;99.90;;;;;;5039825;28;20204;-88
2022/08/29 08:02:19;;;;;;;38.60;36.20;;;20.60;99.90;;;;;;5053800;28;20193;-87
2022/08/29 08:04:47;;;;;;;48.63;45.37;;;20.70;99.90;;;;;;5053621;28;20626;-89
2022/08/29 08:07:15;;;;;;;45.70;42.87;;;20.60;99.90;;;;;;5052939;28;20189;-86
2022/08/29 08:09:42;;;;;;;43.50;40.70;;;20.70;99.90;;;;;;5053363;28;20272;-86
2022/08/29 08:12:10;;;;;;;45.53;42.53;;;20.70;99.90;;;;;;5062765;28;20200;-86
2022/08/29 08:14:37;;;;;;;32.27;29.97;;;20.70;99.90;;;;;;5059406;28;20722;-86
2022/08/29 08:17:04;;;;;;;25.60;23.20;;;20.90;99.90;;;;;;5054787;28;20662;-86
2022/08/29 08:19:32;;;;;;;43.70;40.93;;;20.90;99.90;;;;;;5053158;28;20672;-87
2022/08/29 08:21:59;;;;;;;43.53;40.77;;;21.10;99.90;;;;;;5051213;28;20204;-87
2022/08/29 08:24:26;;;;;;;53.70;50.30;;;21.50;1.00;;;;;;5041856;28;20212;-87
2022/08/29 08:26:53;;;;;;;53.83;49.77;;;21.90;99.90;;;;;;5052867;28;20192;-87
2022/08/29 08:29:21;;;;;;;41.63;38.83;;;21.90;99.90;;;;;;5053278;28;20189;-87
2022/08/29 08:31:50;;;;;;;19.03;17.17;;;21.80;99.90;;;;;;5053243;28;20197;-87
2022/08/29 08:34:18;;;;;;;41.90;38.93;;;21.70;99.90;;;;;;5053313;28;20201;-87
2022/08/29 08:36:47;;;;;;;49.17;46.03;;;21.60;99.90;;;;;;5052923;28;20204;-86
2022/08/29 08:39:14;;;;;;;44.53;41.63;;;21.30;99.90;;;;;;5053121;28;20653;-87
2022/08/29 08:41:52;;;;;;;25.60;23.77;;;21.10;99.90;;;;;;5053188;28;20591;-87
2022/08/29 08:44:54;;;;;;;44.30;41.30;;;21.00;99.90;;;;;;5067051;28;20633;-87
2022/08/29 08:47:27;;;;;;;23.20;21.60;;;20.90;99.90;;;;;;5020869;28;20197;-87
2022/08/29 08:49:59;;;;;;;23.70;22.07;;;21.00;99.90;;;;;;5052970;28;20203;-87
2022/08/29 08:52:33;;;;;;;23.70;21.80;;;21.10;99.90;;;;;;5066923;28;20536;-87
2022/08/29 08:55:05;;;;;;;20.93;19.53;;;21.00;99.90;;;;;;5053016;28;20188;-87
2022/08/29 08:57:38;;;;;;;24.73;22.17;;;21.00;99.90;;;;;;5052531;28;20204;-88
2022/08/29 09:00:09;;;;;;;25.53;23.50;;;20.90;99.90;;;;;;5052738;28;20255;-87
2022/08/29 09:02:46;;;;;;;28.90;26.70;;;20.80;99.90;;;;;;5066548;28;20277;-87
2022/08/29 09:05:34;;;;;;;46.40;43.50;;;20.70;99.90;;;;;;5052460;28;20291;-88
2022/08/29 09:08:11;;;;;;;42.77;39.93;;;20.60;99.90;;;;;;5052306;28;20221;-88
2022/08/29 09:10:43;;;;;;;47.63;44.73;;;20.40;99.90;;;;;;5052514;28;20234;-89
2022/08/29 09:13:21;;;;;;;45.97;43.23;;;20.30;99.90;;;;;;5052835;28;20192;-87
2022/08/29 09:15:51;;;;;;;43.93;41.13;;;20.20;99.90;;;;;;5063575;28;20625;-88
2022/08/29 09:18:27;;;;;;;53.87;50.70;;;20.10;99.90;;;;;;5053936;28;20616;-87
2022/08/29 09:20:55;;;;;;;44.70;42.00;;;20.10;99.90;;;;;;5051968;28;20278;-88
2022/08/29 09:23:28;;;;;;;45.10;42.30;;;20.30;99.90;;;;;;5052474;28;20199;-88
2022/08/29 09:25:55;;;;;;;46.50;43.70;;;20.60;99.90;;;;;;5039348;28;20205;-87
2022/08/29 09:28:23;;;;;;;47.40;44.40;;;21.00;99.90;;;;;;5052692;28;20231;-88
2022/08/29 09:31:21;;;;;;;46.53;43.47;;;21.40;99.90;;;;;;5051865;28;20189;-88
2022/08/29 09:33:51;;;;;;;44.60;41.93;;;21.80;99.90;;;;;;5052218;28;20204;-88
2022/08/29 09:36:35;;;;;;;49.33;45.27;;;22.20;99.90;;;;;;5052449;28;20224;-89
2022/08/29 09:39:14;;;;;;;41.53;39.03;;;22.50;99.90;;;;;;5054915;28;20193;-87
2022/08/29 09:41:41;;;;;;;40.87;38.37;;;22.80;99.90;;;;;;5062115;28;20212;-89
2022/08/29 09:44:13;;;;;;;42.03;39.53;;;23.30;99.90;;;;;;5052310;28;20553;-89
2022/08/29 09:46:41;;;;;;;39.47;37.13;;;23.50;99.90;;;;;;5052334;28;20212;-87
2022/08/29 09:49:14;;;;;;;37.20;34.93;;;23.70;99.90;;;;;;5051724;28;20205;-87
2022/08/29 09:51:43;;;;;;;38.20;35.93;;;23.50;99.90;;;;;;5052134;28;20204;-88
2022/08/29 09:54:18;;;;;;;40.27;37.87;;;23.50;99.90;;;;;;5052291;28;20558;-87
2022/08/29 09:56:52;;;;;;;36.43;34.20;;;23.50;99.90;;;;;;5051930;28;20201;-88
2022/08/29 09:59:27;;;;;;;38.20;35.83;;;23.50;75.90;;;;;;5052007;28;20591;-89
2022/08/29 10:02:26;;;;;;;38.20;35.90;;;23.40;99.90;;;;;;5061114;28;20172;-89
2022/08/29 10:04:55;;;;;;;37.17;34.90;;;23.20;99.90;;;;;;5066468;28;20310;-88
2022/08/29 10:07:24;;;;;;;34.27;32.17;;;23.00;99.90;;;;;;5051901;28;20192;-87
2022/08/29 10:10:03;;;;;;;37.37;35.07;;;22.80;99.90;;;;;;5066101;28;20608;-87
2022/08/29 10:12:41;;;;;;;37.20;35.00;;;22.80;99.90;;;;;;5051782;28;20188;-88
2022/08/29 10:15:13;;;;;;;36.97;34.70;;;22.80;99.90;;;;;;5051921;28;20204;-88
2022/08/29 10:20:51;;;;;;;33.93;31.83;;;22.70;99.90;;;;;;5051661;28;20196;-87
2022/08/29 10:23:26;;;;;;;34.47;32.40;;;22.50;99.90;;;;;;5038186;28;20200;-87
2022/08/29 10:25:55;;;;;;;34.87;32.73;;;22.30;99.90;;;;;;5045113;28;20253;-88
2022/08/29 10:28:30;;;;;;;34.73;32.60;;;22.10;99.90;;;;;;5059082;28;20279;-86
2022/08/29 10:31:02;;;;;;;37.93;35.60;;;21.90;99.90;;;;;;5052385;28;20180;-89
2022/08/29 10:33:44;;;;;;;35.73;33.53;;;21.80;99.90;;;;;;5055152;28;20559;-88
2022/08/29 10:36:17;;;;;;;34.60;32.40;;;21.60;99.90;;;;;;5042869;28;20238;-87
2022/08/29 10:38:47;;;;;;;37.20;34.93;;;21.50;99.90;;;;;;5055584;28;20601;-89
2022/08/29 10:41:30;;;;;;;34.70;32.60;;;21.40;99.90;;;;;;5055791;28;20201;-86
2022/08/29 10:44:07;;;;;;;36.77;34.47;;;21.20;99.90;;;;;;5054986;28;20543;-88
2022/08/29 10:46:55;;;;;;;43.20;40.60;;;21.10;99.90;;;;;;5054980;28;20665;-86
2022/08/29 10:49:33;;;;;;;40.67;38.27;;;21.10;99.90;;;;;;5055001;28;20189;-87
2022/08/29 10:52:14;;;;;;;38.23;35.93;;;21.10;99.90;;;;;;5055335;28;20188;-87
2022/08/29 10:54:51;;;;;;;36.30;33.87;;;21.10;99.90;;;;;;5054991;28;20188;-86
2022/08/29 10:57:32;;;;;;;41.67;39.10;;;21.20;99.90;;;;;;5055032;28;20191;-87
2022/08/29 11:00:05;;;;;;;40.13;37.57;;;21.30;99.90;;;;;;5041914;28;20185;-89
2022/08/29 11:02:38;;;;;;;37.97;35.63;;;21.50;99.90;;;;;;5069128;28;20207;-86
2022/08/29 11:05:13;;;;;;;38.57;36.03;;;21.60;99.90;;;;;;5055042;28;20185;-87
2022/08/29 11:07:46;;;;;;;36.97;34.77;;;21.70;99.90;;;;;;5054930;28;20196;-87
2022/08/29 11:10:16;;;;;;;33.33;31.27;;;21.70;99.90;;;;;;5074704;28;20351;-87
2022/08/29 11:12:50;;;;;;;36.37;34.13;;;21.80;99.90;;;;;;5060364;28;20189;-87
2022/08/29 11:15:24;;;;;;;34.97;32.87;;;21.90;99.90;;;;;;5042255;28;20204;-89
2022/08/29 11:18:00;;;;;;;36.87;34.60;;;21.90;99.90;;;;;;5055102;28;20193;-87
2022/08/29 11:20:34;;;;;;;42.43;39.93;;;21.90;99.90;;;;;;5067039;28;20242;-87
2022/08/29 11:23:08;;;;;;;45.33;42.63;;;21.80;99.90;;;;;;5043807;28;20190;-89
2022/08/29 11:25:40;;;;;;;40.37;37.97;;;21.80;99.90;;;;;;5052554;28;20200;-88
2022/08/29 11:28:17;;;;;;;41.60;39.17;;;21.80;99.90;;;;;;5054502;28;20252;-87
2022/08/29 11:30:52;;;;;;;40.20;37.70;;;21.90;99.90;;;;;;5054786;28;20276;-87
2022/08/29 11:33:28;;;;;;;43.77;40.90;;;22.00;99.90;;;;;;5054884;28;20193;-89
2022/08/29 11:36:20;;;;;;;46.20;42.67;;;22.10;99.90;;;;;;5053860;28;20657;-88
2022/08/29 11:39:29;;;;;;;43.90;41.17;;;22.10;99.90;;;;;;5054722;28;20221;-87
2022/08/29 11:42:01;;;;;;;42.07;39.57;;;22.10;99.90;;;;;;5046854;28;20205;-88
2022/08/29 11:44:33;;;;;;;40.30;37.90;;;22.20;99.90;;;;;;5054214;28;20192;-89
2022/08/29 11:47:00;;;;;;;43.07;40.20;;;22.40;99.90;;;;;;5054290;28;20205;-89
2022/08/29 11:49:39;;;;;;;40.93;38.50;;;22.40;99.90;;;;;;5058524;28;20193;-87
2022/08/29 11:52:25;;;;;;;44.47;40.90;;;22.40;99.90;;;;;;5062069;28;20188;-90
2022/08/29 11:55:25;;;;;;;41.17;38.73;;;22.50;99.90;;;;;;5054078;28;20189;-89
2022/08/29 11:58:01;;;;;;;45.43;42.77;;;22.50;99.90;;;;;;5053689;28;20608;-87
2022/08/29 12:00:53;;;;;;;46.43;43.30;;;22.40;99.90;;;;;;5054033;28;20188;-88
2022/08/29 12:03:54;;;;;;;41.20;38.63;;;22.40;99.90;;;;;;5054138;28;20243;-90
2022/08/29 12:06:40;;;;;;;42.83;39.93;;;22.50;99.90;;;;;;5053630;28;20204;-89
2022/08/29 12:09:30;;;;;;;39.87;37.47;;;22.60;99.90;;;;;;5053698;28;20232;-88
2022/08/29 12:12:18;;;;;;;37.00;34.80;;;22.70;99.90;;;;;;5053825;28;20193;-88
2022/08/29 12:14:47;;;;;;;43.30;40.70;;;22.80;99.90;;;;;;5053666;28;20189;-88
2022/08/29 12:17:50;;;;;;;40.57;38.03;;;23.00;99.90;;;;;;5053328;28;20201;-87
2022/08/29 12:20:40;;;;;;;38.87;36.53;;;23.10;99.90;;;;;;5046439;28;20545;-87
2022/08/29 12:23:20;;;;;;;41.20;38.10;;;23.20;99.90;;;;;;5046014;28;20190;-88
2022/08/29 12:25:48;;;;;;;38.17;35.80;;;23.40;99.90;;;;;;5053055;28;20610;-88
2022/08/29 12:28:39;;;;;;;41.83;39.33;;;23.50;99.90;;;;;;5053253;28;20676;-88
2022/08/29 12:31:12;;;;;;;45.97;43.20;;;23.50;99.90;;;;;;5053412;28;20189;-88
2022/08/29 12:34:14;;;;;;;45.60;42.63;;;23.70;99.90;;;;;;5052919;28;20196;-87
2022/08/29 12:36:59;;;;;;;40.57;37.77;;;23.80;98.70;;;;;;5044425;28;20645;-87
2022/08/29 12:39:45;;;;;;;41.13;38.57;;;23.80;93.40;;;;;;5052977;28;20550;-87
2022/08/29 12:42:21;;;;;;;44.60;41.80;;;23.80;95.50;;;;;;5066997;28;20192;-87
2022/08/29 12:44:58;;;;;;;43.47;40.70;;;23.90;99.90;;;;;;5053496;28;20196;-87
2022/08/29 12:47:27;;;;;;;41.23;38.73;;;23.90;67.90;;;;;;5052364;28;20209;-86
2022/08/29 12:49:59;;;;;;;38.23;35.87;;;23.90;95.10;;;;;;5052607;28;20193;-87
2022/08/29 12:52:31;;;;;;;40.57;38.07;;;24.00;82.00;;;;;;5052474;28;20189;-86
2022/08/29 12:55:01;;;;;;;39.97;37.50;;;23.80;66.10;;;;;;5052275;28;20529;-86